Language: 


Des rapports , des résumés tant et plus, au choix de chacun....


Données statistiques de la station
Quotidien Rapport Septembre 13, 2017 Unités:  Anglais    Métrique   les deux
« Précédent Jour
Suivant Jour »
Quotidien Hebdomadaire Mensuel Annuel Actuel
  Haut: Bas: Moyen:
Température: 66.6 °F 32 °F 60.3 °F
Pt de rosée: 59 °F 50 °F 54.5 °F
Humidité: 98 % 0 % 79 %
Vitesse du vent: 30.6 mph 0 mph 12.7 mph
Rafales: 30.6 mph - -
Vent:- - WSW
Pression: 29.6 in 0 in -
Précipitation: 0.12 in    
Historical Graphs
 
 
Données statistiques pour Septembre 13, 2017
Heure Température Point de rosée Pression Vent Vitesse du vent Refales Humidité Pluie (taux horaire)
00:03 57.9 °F 53.6 °F 29.6 in SSW 7.8 mph 15.4 mph 84 % 0 in
00:08 57.9 °F 53.6 °F 29.6 in SSW 5.8 mph 13.2 mph 84 % 0 in
00:13 57.9 °F 53.6 °F 29.6 in SSW 5.4 mph 13.2 mph 84 % 0 in
00:18 57.9 °F 53.6 °F 29.6 in SSW 5.4 mph 12.8 mph 84 % 0 in
00:19 57.9 °F 53.6 °F 29.6 in South 5.6 mph 13 mph 84 % 0 in
00:24 58.5 °F 53.6 °F 29.6 in WSW 7.8 mph 14.1 mph 83 % 0 in
00:29 58.5 °F 53.6 °F 29.6 in SSW 5.6 mph 17 mph 83 % 0 in
00:34 58.5 °F 53.6 °F 29.6 in WSW 8.5 mph 17 mph 83 % 0 in
00:39 58.5 °F 53.6 °F 29.6 in SSW 12.5 mph 13.6 mph 83 % 0 in
00:45 58.5 °F 53.6 °F 29.6 in WSW 7.8 mph 13.6 mph 83 % 0 in
00:50 58.6 °F 53.6 °F 29.6 in SSW 7.8 mph 15.4 mph 82 % 0 in
00:55 58.6 °F 53.6 °F 29.6 in SSW 12.8 mph 18.6 mph 82 % 0 in
01:00 58.6 °F 53.6 °F 29.6 in SSW 13 mph 19.2 mph 82 % 0 in
01:05 59 °F 53.6 °F 29.6 in WSW 15.2 mph 19.2 mph 79 % 0 in
01:10 59 °F 53.6 °F 29.6 in SSW 14.8 mph 20.8 mph 79 % 0 in
01:15 59 °F 53.6 °F 29.6 in South 19.5 mph 20.8 mph 79 % 0 in
01:21 59 °F 51.8 °F 29.6 in SW 16.3 mph 21.9 mph 74 % 0 in
01:26 59 °F 51.8 °F 29.6 in SSW 12.8 mph 25.3 mph 74 % 0 in
01:31 59 °F 51.8 °F 29.6 in SW 10.3 mph 25.3 mph 74 % 0 in
01:36 59 °F 51.8 °F 29.6 in South 7.6 mph 22.1 mph 74 % 0 in
01:41 59 °F 51.8 °F 29.6 in WSW 11 mph 17.2 mph 74 % 0 in
01:46 59 °F 51.8 °F 29.6 in South 9.8 mph 17.2 mph 74 % 0 in
01:51 59 °F 51.8 °F 29.6 in SSW 14.5 mph 17 mph 74 % 0 in
01:56 59 °F 51.8 °F 29.6 in SW 7.4 mph 17 mph 74 % 0 in
02:01 59 °F 51.8 °F 29.6 in WSW 6.3 mph 16.6 mph 74 % 0 in
02:06 59 °F 51.8 °F 29.6 in SSW 10.7 mph 17.2 mph 74 % 0 in
02:11 59 °F 51.8 °F 29.6 in SSW 12.5 mph 17.2 mph 74 % 0 in
02:16 59 °F 51.8 °F 29.5 in SSW 11.2 mph 16.6 mph 74 % 0 in
02:21 55.6 °F 55.4 °F 29.5 in South 12.3 mph 19.5 mph 95 % 0 in
02:26 55.4 °F 55.4 °F 29.5 in SW 22.4 mph 22.4 mph 95 % 0 in
02:31 55.4 °F 55.4 °F 29.5 in WSW 10.5 mph 22.4 mph 96 % 0 in
02:36 55.4 °F 55.4 °F 29.5 in SSW 10.5 mph 22.4 mph 96 % 0 in
02:38 55.4 °F 55.4 °F 29.5 in South 13.2 mph 14.3 mph 96 % 0 in
02:43 55.4 °F 55.4 °F 29.5 in South 8.1 mph 15.2 mph 96 % 0 in
02:48 55.4 °F 55.4 °F 29.5 in SSW 11.9 mph 16.3 mph 96 % 0 in
02:53 55.4 °F 55.4 °F 29.5 in SW 12.5 mph 17.4 mph 96 % 0 in
02:58 55.4 °F 55.4 °F 29.5 in SW 8.5 mph 17.4 mph 96 % 0 in
03:12 32 °F 55.4 °F 0 in Calm     0 % 0 in
03:17 32 °F 55.4 °F 29.5 in WSW 12.5 mph 16.1 mph 0 % 0 in
03:22 55.9 °F 55.4 °F 29.5 in SSW 12.5 mph 17.7 mph 98 % 0 in
03:27 56.1 °F 55.4 °F 29.5 in South 7.8 mph 17.7 mph 98 % 0 in
03:32 56.1 °F 55.4 °F 29.5 in SW 12.3 mph 17.2 mph 98 % 0 in
03:37 56.5 °F 57.2 °F 29.5 in SW 13.6 mph 17.2 mph 98 % 0 in
03:42 56.5 °F 57.2 °F 29.5 in SW 6.3 mph 17.9 mph 98 % 0 in
03:47 56.8 °F 57.2 °F 29.5 in South 10.3 mph 17.9 mph 98 % 0 in
03:53 56.8 °F 57.2 °F 29.5 in SW 8.7 mph 16.3 mph 98 % 0 in
03:58 56.8 °F 57.2 °F 29.5 in SW 19.9 mph 19.9 mph 98 % 0 in
04:03 56.8 °F 57.2 °F 29.5 in SSW 22.8 mph 22.8 mph 98 % 0 in
04:08 57.2 °F 57.2 °F 29.5 in SW 17.7 mph 22.8 mph 98 % 0 in
04:13 57.2 °F 57.2 °F 29.5 in SSW 11.2 mph 17.7 mph 98 % 0 in
04:18 57.2 °F 57.2 °F 29.5 in SW 10.5 mph 15.4 mph 98 % 0 in
04:23 57.4 °F 57.2 °F 29.5 in WSW 10.7 mph 15.4 mph 98 % 0 in
04:28 57.6 °F 57.2 °F 29.5 in WSW 15.4 mph 15.4 mph 98 % 0 in
04:33 57.6 °F 57.2 °F 29.4 in SW 19.2 mph 19.2 mph 98 % 0 in
04:38 57.7 °F 57.2 °F 29.4 in South 14.8 mph 19.2 mph 98 % 0 in
04:43 57.7 °F 57.2 °F 29.4 in SSW 19 mph 19 mph 98 % 0 in
04:48 57.7 °F 57.2 °F 29.4 in WSW 8.1 mph 19 mph 98 % 0.01 in
04:53 57.7 °F 57.2 °F 29.4 in SW 9.8 mph 13.2 mph 98 % 0.01 in
04:58 57.6 °F 57.2 °F 29.4 in WSW 15.4 mph 15.4 mph 98 % 0.02 in
05:03 57.6 °F 57.2 °F 29.4 in WSW 13 mph 15.4 mph 98 % 0.04 in
05:08 57.7 °F 57.2 °F 29.4 in WSW 12.8 mph 15.4 mph 98 % 0.09 in
05:14 57.7 °F 57.2 °F 29.4 in WSW 8.7 mph 13.2 mph 98 % 0.1 in
05:19 57.7 °F 57.2 °F 29.4 in WSW 9.8 mph 13.2 mph 98 % 0.1 in
05:24 57.7 °F 57.2 °F 29.4 in SSW 11.4 mph 13 mph 98 % 0.1 in
05:27 57.7 °F 57.2 °F 29.4 in WSW 13 mph 13 mph 98 % 0.1 in
05:32 58.3 °F 59 °F 29.4 in WSW 11.4 mph 13 mph 98 % 0.11 in
05:37 58.5 °F 59 °F 29.4 in WSW 10.1 mph 11.4 mph 98 % 0.11 in
05:42 58.5 °F 59 °F 29.4 in WSW 15.9 mph 15.9 mph 98 % 0.11 in
05:47 58.6 °F 59 °F 29.4 in SW 15.2 mph 15.9 mph 98 % 0.11 in
05:52 58.8 °F 59 °F 29.4 in West 10.7 mph 15.2 mph 98 % 0.1 in
05:57 59 °F 59 °F 29.4 in WSW 8.7 mph 15.4 mph 98 % 0.09 in
06:02 59 °F 59 °F 29.4 in WSW 14.3 mph 15.4 mph 98 % 0.07 in
06:07 59.2 °F 59 °F 29.4 in WSW 10.3 mph 14.3 mph 98 % 0.05 in
06:12 59.2 °F 59 °F 29.4 in WSW 10.3 mph 14.3 mph 98 % 0.01 in
06:17 59.2 °F 59 °F 29.4 in West 23.7 mph 23.7 mph 98 % 0.01 in
06:23 59.4 °F 59 °F 29.4 in WSW 10.5 mph 23.7 mph 96 % 0.01 in
06:28 59.4 °F 59 °F 29.4 in WSW 23 mph 23 mph 96 % 0.01 in
06:33 59.4 °F 59 °F 29.4 in SSW 17.7 mph 23 mph 96 % 0 in
06:38 59.4 °F 59 °F 29.4 in West 22.8 mph 23 mph 96 % 0 in
06:43 59.5 °F 55.4 °F 29.4 in West 22.8 mph 22.8 mph 88 % 0 in
06:48 59.5 °F 55.4 °F 29.4 in West 14.3 mph 22.8 mph 88 % 0 in
06:53 59.5 °F 55.4 °F 29.4 in SSW 12.5 mph 19.2 mph 88 % 0 in
06:58 59.5 °F 55.4 °F 29.4 in West 22.1 mph 22.1 mph 88 % 0 in
07:03 59.4 °F 55.4 °F 29.4 in SW 12.5 mph 22.1 mph 88 % 0 in
07:08 59.4 °F 55.4 °F 29.4 in WSW 18.8 mph 21.5 mph 88 % 0 in
07:13 59.4 °F 55.4 °F 29.4 in WSW 17.4 mph 21.5 mph 88 % 0 in
07:18 59.4 °F 55.4 °F 29.4 in WSW 17.4 mph 21.5 mph 88 % 0 in
07:23 59.4 °F 55.4 °F 29.4 in WSW 10.7 mph 19.7 mph 88 % 0 in
07:28 60.1 °F 55.4 °F 29.4 in WSW 14.8 mph 20.4 mph 86 % 0 in
07:33 60.1 °F 55.4 °F 29.4 in West 13.9 mph 20.4 mph 86 % 0 in
07:38 59.9 °F 57.2 °F 29.4 in West 13.9 mph 18.1 mph 88 % 0 in
07:43 59.9 °F 57.2 °F 29.4 in West 13.9 mph 18.1 mph 88 % 0.01 in
07:53 58.8 °F 57.2 °F 29.5 in West 18.1 mph 18.1 mph 94 % 0.01 in
07:58 58.8 °F 57.2 °F 29.5 in WSW 10.7 mph 18.1 mph 94 % 0.01 in
08:03 58.8 °F 57.2 °F 29.5 in WSW 11.2 mph 17.7 mph 94 % 0.01 in
08:08 59 °F 57.2 °F 29.5 in WSW 11.2 mph 17.7 mph 93 % 0.01 in
08:13 59.4 °F 57.2 °F 29.5 in WSW 11.2 mph 12.5 mph 92 % 0.01 in
08:18 59.5 °F 57.2 °F 29.5 in WSW 12.8 mph 17.4 mph 91 % 0.01 in
08:23 59.5 °F 57.2 °F 29.5 in WSW 14.5 mph 17.4 mph 91 % 0.01 in
08:28 59.5 °F 57.2 °F 29.5 in WSW 9.8 mph 14.5 mph 91 % 0.01 in
08:33 59.5 °F 57.2 °F 29.5 in South 8.7 mph 15.2 mph 91 % 0.01 in
08:38 59.5 °F 57.2 °F 29.5 in WSW 13.2 mph 16.1 mph 91 % 0.01 in
08:43 59.5 °F 57.2 °F 29.5 in West 17.2 mph 17.2 mph 91 % 0 in
08:48 59.5 °F 57.2 °F 29.5 in West 12.3 mph 18.1 mph 91 % 0 in
08:53 59.5 °F 57.2 °F 29.5 in WSW 12.8 mph 18.1 mph 91 % 0 in
08:58 59.5 °F 57.2 °F 29.5 in WSW 11 mph 17.7 mph 91 % 0 in
09:03 60.3 °F 55.4 °F 29.5 in West 16.6 mph 17.7 mph 84 % 0 in
09:08 60.3 °F 55.4 °F 29.5 in WSW 10.7 mph 16.6 mph 84 % 0 in
09:13 60.3 °F 55.4 °F 29.5 in West 23.7 mph 23.7 mph 84 % 0 in
09:18 60.8 °F 53.6 °F 29.5 in West 15.7 mph 23.7 mph 77 % 0 in
09:23 60.8 °F 53.6 °F 29.5 in WSW 12.8 mph 22.4 mph 77 % 0 in
09:28 60.8 °F 53.6 °F 29.5 in West 15.2 mph 22.4 mph 77 % 0 in
09:33 60.8 °F 53.6 °F 29.5 in WSW 14.8 mph 18.8 mph 77 % 0 in
09:39 60.8 °F 53.6 °F 29.5 in West 13 mph 18.8 mph 77 % 0 in
09:44 61.7 °F 55.4 °F 29.5 in WSW 15.2 mph 19 mph 78 % 0 in
09:49 61.7 °F 55.4 °F 29.5 in WNW 22.8 mph 22.8 mph 78 % 0 in
09:54 61.7 °F 55.4 °F 29.5 in West 23.7 mph 23.7 mph 78 % 0 in
09:59 61.7 °F 55.4 °F 29.5 in WSW 14.8 mph 23.7 mph 78 % 0 in
10:02 61.7 °F 55.4 °F 29.6 in West 13.9 mph 23.7 mph 78 % 0 in
10:07 62.2 °F 53.6 °F 29.6 in WSW 19.9 mph 19.9 mph 71 % 0 in
10:12 62.6 °F 53.6 °F 29.6 in West 21.9 mph 21.9 mph 70 % 0 in
10:17 62.2 °F 51.8 °F 29.6 in West 19.5 mph 21.9 mph 70 % 0 in
10:22 62.2 °F 51.8 °F 29.6 in West 17.7 mph 21.9 mph 70 % 0 in
10:27 62.2 °F 51.8 °F 29.6 in West 16.8 mph 19.5 mph 70 % 0 in
10:32 62.2 °F 51.8 °F 29.6 in West 16.3 mph 21 mph 70 % 0 in
10:37 62.2 °F 51.8 °F 29.6 in West 9.6 mph 23.3 mph 70 % 0 in
10:42 63.1 °F 53.6 °F 29.6 in West 14.5 mph 23.7 mph 68 % 0 in
10:47 63.7 °F 51.8 °F 29.6 in West 16.8 mph 23.7 mph 64 % 0 in
10:52 63.7 °F 51.8 °F 29.6 in West 11.4 mph 22.1 mph 64 % 0 in
10:57 63.7 °F 51.8 °F 29.6 in West 10.5 mph 21.5 mph 64 % 0 in
11:02 63.7 °F 51.8 °F 29.6 in West 14.1 mph 23.7 mph 64 % 0 in
11:07 64.2 °F 53.6 °F 29.6 in West 12.8 mph 23.7 mph 65 % 0 in
11:12 64.2 °F 53.6 °F 29.6 in WSW 15.2 mph 28.4 mph 65 % 0 in
11:17 64.2 °F 53.6 °F 29.5 in West 30.6 mph 30.6 mph 65 % 0 in
11:22 64.2 °F 53.6 °F 29.5 in West 11 mph 30.6 mph 65 % 0 in
11:27 64.2 °F 53.6 °F 29.5 in WSW 23.9 mph 23.9 mph 65 % 0 in
11:32 64.2 °F 53.6 °F 29.6 in West 16.3 mph 23.9 mph 65 % 0 in
11:37 64.2 °F 53.6 °F 29.6 in WSW 19.7 mph 23.3 mph 65 % 0 in
11:42 64.2 °F 53.6 °F 29.6 in WSW 13.2 mph 23.3 mph 65 % 0 in
11:47 64.2 °F 53.6 °F 29.6 in West 17.4 mph 19.9 mph 65 % 0 in
11:52 64.2 °F 53.6 °F 29.6 in West 16.1 mph 24.4 mph 65 % 0 in
11:57 64.2 °F 53.6 °F 29.6 in West 15.2 mph 24.4 mph 65 % 0 in
12:02 64.2 °F 53.6 °F 29.6 in WSW 7.8 mph 23.3 mph 65 % 0 in
12:07 64.2 °F 53.6 °F 29.6 in West 14.8 mph 23.3 mph 65 % 0 in
12:12 64.2 °F 53.6 °F 29.6 in West 12.3 mph 22.4 mph 65 % 0 in
12:17 65.7 °F 53.6 °F 29.6 in West 12.3 mph 19.5 mph 64 % 0 in
12:22 65.7 °F 53.6 °F 29.6 in WSW 13.9 mph 22.1 mph 64 % 0 in
12:27 65.5 °F 53.6 °F 29.6 in West 17.7 mph 22.1 mph 64 % 0 in
12:33 65.1 °F 51.8 °F 29.6 in WSW 21.3 mph 25.3 mph 61 % 0 in
12:38 65.1 °F 51.8 °F 29.6 in West 25.9 mph 25.9 mph 60 % 0 in
12:43 65.1 °F 51.8 °F 29.6 in West 14.5 mph 26.4 mph 60 % 0 in
12:48 65.1 °F 51.8 °F 29.6 in West 16.3 mph 26.4 mph 60 % 0 in
12:53 65.1 °F 51.8 °F 29.6 in West 8.5 mph 24.4 mph 60 % 0 in
12:58 64.2 °F 51.8 °F 29.6 in WSW 10.1 mph 19.2 mph 64 % 0 in
13:03 63 °F 55.4 °F 29.6 in WSW 8.5 mph 20.4 mph 73 % 0 in
13:08 63 °F 55.4 °F 29.6 in WSW 13 mph 20.4 mph 73 % 0 in
13:13 61.5 °F 53.6 °F 29.6 in WSW 7.4 mph 15.4 mph 74 % 0 in
13:18 61.5 °F 53.6 °F 29.6 in West 22.6 mph 22.6 mph 74 % 0 in
13:23 60.8 °F 53.6 °F 29.6 in West 16.3 mph 25.1 mph 77 % 0 in
13:28 60.8 °F 53.6 °F 29.6 in WSW 13.4 mph 25.1 mph 77 % 0 in
13:33 60.8 °F 53.6 °F 29.6 in SW 8.7 mph 22.8 mph 77 % 0 in
13:38 60.8 °F 53.6 °F 29.6 in West 5.6 mph 15.9 mph 77 % 0 in
13:43 60.8 °F 53.6 °F 29.6 in SW 10.3 mph 15.9 mph 77 % 0 in
13:48 60.8 °F 53.6 °F 29.6 in SSW 8.9 mph 15.2 mph 77 % 0 in
13:53 65.1 °F 57.2 °F 29.6 in WSW 14.5 mph 14.5 mph 77 % 0 in
13:58 65.1 °F 57.2 °F 29.6 in South 12.8 mph 14.5 mph 77 % 0 in
14:03 65.1 °F 57.2 °F 29.6 in WSW 10.3 mph 15.7 mph 77 % 0 in
14:08 65.1 °F 57.2 °F 29.6 in WSW 7.8 mph 15.7 mph 77 % 0 in
14:13 65.1 °F 57.2 °F 29.6 in SSW 8.1 mph 15.4 mph 77 % 0 in
14:18 65.1 °F 55.4 °F 29.6 in SSW 5.6 mph 15.4 mph 73 % 0 in
14:23 64.8 °F 57.2 °F 29.6 in SW 8.7 mph 17 mph 74 % 0 in
14:28 64.8 °F 57.2 °F 29.6 in WSW 7.8 mph 17 mph 74 % 0 in
14:33 64.4 °F 57.2 °F 29.6 in SSW 8.1 mph 11.9 mph 75 % 0 in
14:38 64.4 °F 57.2 °F 29.6 in WSW 15.4 mph 15.4 mph 75 % 0 in
14:43 64.8 °F 57.2 °F 29.6 in WSW 15.7 mph 15.7 mph 75 % 0 in
14:48 64.8 °F 55.4 °F 29.6 in WSW 17 mph 17 mph 72 % 0 in
14:54 66.6 °F 55.4 °F 29.6 in WSW 22.4 mph 22.4 mph 65 % 0 in
14:59 66.6 °F 55.4 °F 29.6 in West 12.5 mph 23 mph 65 % 0 in
15:04 66.6 °F 55.4 °F 29.6 in West 23 mph 27.1 mph 65 % 0 in
15:09 66.6 °F 55.4 °F 29.6 in WSW 21.3 mph 27.1 mph 65 % 0 in
15:14 66.6 °F 55.4 °F 29.6 in West 13.6 mph 24.4 mph 65 % 0 in
15:19 66.6 °F 55.4 °F 29.6 in West 24.6 mph 24.6 mph 65 % 0 in
15:24 66.6 °F 55.4 °F 29.6 in West 23.3 mph 24.6 mph 65 % 0 in
15:29 66.6 °F 55.4 °F 29.6 in West 19.7 mph 23.3 mph 65 % 0 in
15:34 66.6 °F 55.4 °F 29.6 in West 12.5 mph 23 mph 65 % 0 in
15:39 66.6 °F 55.4 °F 29.6 in WSW 17.4 mph 19.7 mph 65 % 0 in
15:44 64.2 °F 55.4 °F 29.6 in WSW 10.5 mph 23.5 mph 72 % 0 in
15:49 63.9 °F 53.6 °F 29.6 in WSW 19.2 mph 27.1 mph 67 % 0 in
15:54 63.9 °F 53.6 °F 29.6 in West 17.7 mph 27.1 mph 67 % 0 in
15:59 63.9 °F 53.6 °F 29.6 in West 14.3 mph 23.9 mph 67 % 0 in
16:05 63.9 °F 53.6 °F 29.6 in SW 17.4 mph 21 mph 67 % 0 in
16:10 64.9 °F 53.6 °F 29.6 in West 14.8 mph 25.1 mph 64 % 0 in
16:15 64.9 °F 53.6 °F 29.6 in West 10.1 mph 25.1 mph 64 % 0 in
16:20 65.1 °F 53.6 °F 29.6 in West 13 mph 20.4 mph 65 % 0 in
16:25 65.8 °F 53.6 °F 29.6 in West 14.1 mph 20.6 mph 65 % 0 in
16:30 65.8 °F 51.8 °F 29.6 in WSW 15.4 mph 20.6 mph 61 % 0 in
16:35 65.8 °F 51.8 °F 29.6 in WSW 25.1 mph 25.1 mph 61 % 0 in
16:40 64.8 °F 51.8 °F 29.6 in West 16.8 mph 25.1 mph 60 % 0 in
16:45 64.4 °F 51.8 °F 29.6 in WSW 17.9 mph 23 mph 62 % 0 in
16:50 64.4 °F 50 °F 29.6 in West 15.4 mph 23.7 mph 60 % 0 in
16:55 64.8 °F 51.8 °F 29.6 in West 14.8 mph 23.7 mph 62 % 0 in
17:00 64.8 °F 51.8 °F 29.6 in West 18.8 mph 25.3 mph 62 % 0 in
17:05 64.8 °F 51.8 °F 29.6 in WSW 17 mph 25.3 mph 62 % 0 in
17:10 64.8 °F 51.8 °F 29.6 in WSW 13.2 mph 24.6 mph 62 % 0 in
17:15 64.8 °F 51.8 °F 29.6 in West 22.4 mph 24.6 mph 62 % 0 in
17:20 64.8 °F 51.8 °F 29.6 in WSW 13 mph 24.6 mph 62 % 0 in
17:25 63.7 °F 50 °F 29.6 in West 18.8 mph 18.8 mph 61 % 0 in
17:30 63.5 °F 51.8 °F 29.6 in West 15.2 mph 19.7 mph 65 % 0 in
17:35 63.5 °F 51.8 °F 29.6 in WSW 19.7 mph 19.7 mph 65 % 0 in
17:40 63.5 °F 51.8 °F 29.6 in WSW 18.6 mph 23.5 mph 65 % 0 in
17:45 64.6 °F 51.8 °F 29.6 in WSW 16.3 mph 23.5 mph 63 % 0 in
17:50 64.9 °F 51.8 °F 29.6 in SW 17.2 mph 19.2 mph 63 % 0 in
17:55 64.9 °F 51.8 °F 29.6 in West 10.7 mph 22.6 mph 63 % 0 in
18:00 63.1 °F 51.8 °F 29.6 in WSW 15.7 mph 22.6 mph 64 % 0 in
18:05 63 °F 51.8 °F 29.6 in WSW 10.7 mph 21 mph 64 % 0 in
18:10 63 °F 51.8 °F 29.6 in WSW 18.1 mph 23.3 mph 66 % 0 in
18:15 63.5 °F 53.6 °F 29.6 in WSW 9.6 mph 23.3 mph 68 % 0 in
18:20 63.7 °F 53.6 °F 29.6 in West 17.4 mph 18.6 mph 69 % 0 in
18:25 63.7 °F 53.6 °F 29.6 in WSW 12.3 mph 18.6 mph 69 % 0 in
18:31 63 °F 53.6 °F 29.6 in West 9.8 mph 15.4 mph 70 % 0 in
18:36 63.1 °F 53.6 °F 29.6 in West 13 mph 15.2 mph 70 % 0 in
18:41 63.1 °F 53.6 °F 29.6 in WSW 12.5 mph 15.9 mph 70 % 0 in
18:46 63.1 °F 53.6 °F 29.6 in West 8.1 mph 15.9 mph 70 % 0 in
18:51 63.1 °F 53.6 °F 29.6 in West 17.7 mph 17.7 mph 70 % 0 in
18:56 63.1 °F 53.6 °F 29.6 in WSW 13 mph 17.7 mph 70 % 0 in
19:01 63.1 °F 53.6 °F 29.6 in West 11.4 mph 13 mph 70 % 0 in
19:06 61.5 °F 53.6 °F 29.6 in West 9.8 mph 13 mph 73 % 0 in
19:11 61.5 °F 53.6 °F 29.6 in WSW 6 mph 15.2 mph 73 % 0 in
19:16 61.3 °F 53.6 °F 29.6 in WSW 4.9 mph 15.2 mph 74 % 0 in
19:21 61.3 °F 53.6 °F 29.6 in SSW 5.4 mph 10.7 mph 74 % 0 in
19:26 61.3 °F 53.6 °F 29.6 in WSW 12.3 mph 12.3 mph 75 % 0 in
19:31 61.2 °F 53.6 °F 29.6 in SW 9.4 mph 12.5 mph 74 % 0 in
19:36 61.2 °F 53.6 °F 29.6 in SW 7.6 mph 15.2 mph 74 % 0 in
19:41 61.2 °F 53.6 °F 29.6 in WSW 8.5 mph 15.2 mph 74 % 0 in
19:46 61.2 °F 53.6 °F 29.6 in WSW 12.3 mph 13 mph 74 % 0 in
19:51 59.5 °F 53.6 °F 29.6 in SW 12.3 mph 17.7 mph 81 % 0 in
19:57 59.4 °F 55.4 °F 29.6 in WSW 11 mph 17.7 mph 82 % 0 in
20:02 59.4 °F 55.4 °F 29.6 in SSW 4.3 mph 13.4 mph 82 % 0 in
20:07 59.4 °F 55.4 °F 29.6 in SW 8.7 mph 12.3 mph 82 % 0 in
20:12 59.4 °F 55.4 °F 29.6 in WSW 10.5 mph 10.5 mph 82 % 0 in
20:17 59 °F 55.4 °F 29.6 in WSW 9.6 mph 14.5 mph 84 % 0 in
20:22 59 °F 55.4 °F 29.6 in West 13 mph 13.2 mph 84 % 0 in
20:27 59 °F 55.4 °F 29.6 in WSW 8.5 mph 13.2 mph 84 % 0 in
20:32 59 °F 55.4 °F 29.6 in SSW 7.8 mph 12.1 mph 84 % 0 in
20:37 59 °F 55.4 °F 29.6 in WSW 12.8 mph 12.8 mph 84 % 0 in
20:42 58.8 °F 55.4 °F 29.6 in WSW 8.1 mph 13.9 mph 85 % 0 in
20:43 58.8 °F 55.4 °F 29.6 in West 9.6 mph 13.9 mph 85 % 0 in
20:49 58.6 °F 55.4 °F 29.6 in SW 8.7 mph 13.9 mph 88 % 0 in
20:53 58.5 °F 55.4 °F 29.6 in SSW 11 mph 14.5 mph 89 % 0 in
20:59 58.5 °F 55.4 °F 29.6 in WSW 7.6 mph 11 mph 89 % 0 in
21:04 57.7 °F 55.4 °F 29.6 in WSW 10.7 mph 13.4 mph 91 % 0 in
21:09 57.7 °F 55.4 °F 29.6 in WSW 13.2 mph 13.9 mph 91 % 0 in
21:12 57.7 °F 55.4 °F 29.6 in WSW 10.5 mph 13.9 mph 91 % 0 in
21:17 57.7 °F 55.4 °F 29.6 in West 13 mph 13.9 mph 91 % 0 in
21:19 57.4 °F 55.4 °F 29.6 in WSW 6.5 mph 13 mph 91 % 0 in
21:24 57.2 °F 55.4 °F 29.6 in West 8.5 mph 13 mph 91 % 0 in
21:29 57 °F 55.4 °F 29.6 in SW 9.8 mph 12.5 mph 92 % 0 in
21:34 57 °F 55.4 °F 29.6 in WSW 8.7 mph 13.2 mph 92 % 0 in
21:50 32 °F 55.4 °F 0 in Calm     0 % 0 in
21:55 56.8 °F 55.4 °F 29.6 in SW 5.8 mph 10.5 mph 92 % 0 in
22:00 56.8 °F 55.4 °F 29.6 in WSW 6.3 mph 13 mph 92 % 0 in
22:05 56.7 °F 55.4 °F 29.6 in West 10.3 mph 13 mph 92 % 0 in
22:10 56.7 °F 55.4 °F 29.6 in West 11 mph 12.1 mph 91 % 0 in
22:15 56.8 °F 55.4 °F 29.6 in West 8.5 mph 11.9 mph 91 % 0 in
22:20 56.8 °F 55.4 °F 29.6 in WSW 7.6 mph 11.9 mph 91 % 0 in
22:25 56.7 °F 53.6 °F 29.6 in WSW 8.1 mph 10.5 mph 89 % 0 in
22:30 56.5 °F 53.6 °F 29.6 in WSW 10.5 mph 11.4 mph 88 % 0 in
22:35 56.3 °F 53.6 °F 29.6 in WSW 10.1 mph 12.8 mph 86 % 0 in
22:40 56.3 °F 53.6 °F 29.6 in WSW 10.1 mph 13 mph 86 % 0 in
22:45 56.3 °F 53.6 °F 29.6 in WSW 8.5 mph 13 mph 86 % 0 in
22:50 55.9 °F 51.8 °F 29.6 in SW 8.7 mph 10.3 mph 85 % 0 in
22:55 55.9 °F 51.8 °F 29.6 in WSW 4.9 mph 9.8 mph 85 % 0 in
23:00 55.8 °F 51.8 °F 29.6 in WSW 6.3 mph 9.8 mph 85 % 0 in
23:05 55.6 °F 51.8 °F 29.6 in WSW 5.4 mph 10.3 mph 86 % 0 in
23:10 55.6 °F 51.8 °F 29.6 in WSW 6.5 mph 10.3 mph 86 % 0 in
23:15 55.6 °F 51.8 °F 29.6 in WSW 6 mph 8.5 mph 86 % 0 in
23:20 55.2 °F 51.8 °F 29.6 in WSW 4.9 mph 7.8 mph 86 % 0 in
23:25 54.9 °F 51.8 °F 29.6 in WSW 6.3 mph 7.4 mph 86 % 0 in
23:30 54.9 °F 51.8 °F 29.6 in WSW 4.3 mph 7.4 mph 86 % 0 in
23:36 54.5 °F 51.8 °F 29.6 in WSW 6.3 mph 7.4 mph 88 % 0 in
23:41 54.5 °F 51.8 °F 29.6 in WSW 6 mph 7.4 mph 88 % 0 in
23:46 54.7 °F 51.8 °F 29.6 in WSW 5.6 mph 8.5 mph 89 % 0 in
23:51 54.9 °F 51.8 °F 29.6 in West 4.3 mph 8.5 mph 89 % 0 in
23:56 54.9 °F 51.8 °F 29.6 in Calm   5.8 mph 89 % 0 in
Le Gheer Warneton
Courtoisie de Weather Underground - 2.5 mb

Mise a jour : 17-12-17 09:14:12
Généré par Cumulus 1.9.4 (1099)